createdAt,value
2024-02-02T00:02:06.183Z,8.41
2024-02-02T00:04:32.805Z,8.41
2024-02-02T00:06:59.301Z,8.24
2024-02-02T00:09:25.790Z,8.42
2024-02-02T00:11:52.328Z,8.41
2024-02-02T00:14:18.791Z,8.47
2024-02-02T00:16:45.447Z,8.41
2024-02-02T00:19:12.058Z,8.41
2024-02-02T00:21:38.586Z,8.60
2024-02-02T00:24:05.264Z,8.47
2024-02-02T00:26:31.815Z,8.55
2024-02-02T00:28:58.296Z,8.51
2024-02-02T00:31:24.824Z,8.51
2024-02-02T00:33:51.654Z,8.62
2024-02-02T00:36:18.347Z,8.57
2024-02-02T00:38:44.907Z,8.71
2024-02-02T00:41:11.372Z,8.67
2024-02-02T00:43:37.842Z,8.63
2024-02-02T00:46:04.471Z,8.44
2024-02-02T00:48:31.042Z,8.50
2024-02-02T00:50:57.575Z,8.58
2024-02-02T00:53:24.048Z,8.65
2024-02-02T00:55:50.515Z,8.65
2024-02-02T00:58:17.089Z,8.73
2024-02-02T01:00:43.645Z,8.69
2024-02-02T01:03:10.236Z,8.61
2024-02-02T01:05:36.757Z,8.53
2024-02-02T01:08:03.449Z,8.55
2024-02-02T01:10:30.268Z,8.44
2024-02-02T01:12:56.916Z,8.65
2024-02-02T01:15:23.885Z,8.73
2024-02-02T01:17:50.480Z,8.63
2024-02-02T01:20:17.199Z,8.67
2024-02-02T01:22:43.692Z,8.82
2024-02-02T01:25:14.963Z,8.78
2024-02-02T01:27:44.472Z,8.65
2024-02-02T01:30:14.442Z,8.60
2024-02-02T01:32:41.157Z,8.77
2024-02-02T01:35:08.524Z,8.68
2024-02-02T01:37:35.089Z,8.96
2024-02-02T01:40:01.687Z,8.77
2024-02-02T01:42:28.283Z,8.76
2024-02-02T01:44:54.880Z,8.59
2024-02-02T01:47:21.396Z,8.90
2024-02-02T01:49:49.464Z,8.63
2024-02-02T01:52:16.232Z,8.60
2024-02-02T01:54:42.870Z,8.87
2024-02-02T01:57:09.452Z,8.93
2024-02-02T01:59:36.012Z,8.82
2024-02-02T02:02:02.543Z,8.86
2024-02-02T02:04:30.104Z,8.89
2024-02-02T02:06:57.157Z,8.85
2024-02-02T02:09:23.776Z,8.80
2024-02-02T02:11:50.410Z,8.83
2024-02-02T02:14:16.914Z,8.94
2024-02-02T02:16:43.903Z,8.76
2024-02-02T02:19:15.748Z,8.66
2024-02-02T02:21:42.709Z,8.90
2024-02-02T02:24:10.634Z,8.72
2024-02-02T02:26:37.699Z,8.91
2024-02-02T02:29:04.610Z,8.90
2024-02-02T02:31:31.342Z,8.81
2024-02-02T02:33:58.045Z,8.81
2024-02-02T02:36:25.108Z,8.72
2024-02-02T02:38:52.005Z,8.86
2024-02-02T02:41:18.723Z,8.75
2024-02-02T02:43:45.293Z,8.67
2024-02-02T02:46:12.693Z,8.80
2024-02-02T02:48:39.506Z,8.66
2024-02-02T02:51:06.357Z,8.88
2024-02-02T02:53:32.860Z,8.88
2024-02-02T02:55:59.345Z,8.84
2024-02-02T02:58:25.848Z,8.88
2024-02-02T03:00:53.997Z,8.87
2024-02-02T03:03:20.563Z,8.93
2024-02-02T03:05:48.102Z,8.72
2024-02-02T03:08:14.715Z,8.84
2024-02-02T03:10:42.956Z,8.91
2024-02-02T03:13:09.653Z,8.94
2024-02-02T03:15:36.201Z,8.85
2024-02-02T03:18:03.065Z,8.92
2024-02-02T03:20:29.910Z,8.89
2024-02-02T03:22:56.732Z,8.98
2024-02-02T03:25:23.286Z,8.77
2024-02-02T03:27:49.764Z,8.79
2024-02-02T03:30:16.278Z,8.87
2024-02-02T03:32:43.064Z,8.82
2024-02-02T03:35:09.668Z,8.91
2024-02-02T03:37:36.126Z,8.77
2024-02-02T03:40:05.176Z,8.82
2024-02-02T03:42:31.940Z,8.78
2024-02-02T03:44:58.532Z,8.83
2024-02-02T03:47:25.462Z,8.80
2024-02-02T03:49:51.942Z,8.93
2024-02-02T03:52:24.116Z,8.78
2024-02-02T03:54:53.639Z,8.80
2024-02-02T03:57:20.142Z,8.77
2024-02-02T03:59:46.665Z,8.88
2024-02-02T04:02:13.508Z,8.85
2024-02-02T04:04:40.497Z,8.89
2024-02-02T04:07:07.013Z,9.00
2024-02-02T04:09:33.762Z,8.77
2024-02-02T04:12:00.432Z,8.83
2024-02-02T04:14:27.079Z,8.82
2024-02-02T04:16:53.642Z,8.62
2024-02-02T04:19:22.143Z,8.87
2024-02-02T04:21:49.005Z,8.88
2024-02-02T04:24:15.653Z,8.73
2024-02-02T04:26:42.184Z,8.77
2024-02-02T04:29:08.712Z,8.87
2024-02-02T04:31:35.215Z,8.73
2024-02-02T04:34:01.786Z,8.61
2024-02-02T04:36:28.781Z,8.65
2024-02-02T04:38:55.364Z,8.70
2024-02-02T04:41:21.890Z,8.70
2024-02-02T04:43:48.478Z,8.65
2024-02-02T04:46:14.957Z,8.68
2024-02-02T04:48:41.493Z,8.57
2024-02-02T04:51:08.064Z,8.80
2024-02-02T04:53:34.627Z,8.79
2024-02-02T04:56:01.113Z,8.91
2024-02-02T04:58:27.641Z,8.56
2024-02-02T05:00:54.132Z,8.73
2024-02-02T05:03:20.702Z,8.74
2024-02-02T05:05:47.167Z,8.76
2024-02-02T05:08:13.976Z,8.87
2024-02-02T05:10:40.660Z,8.85
2024-02-02T05:13:07.277Z,8.77
2024-02-02T05:15:33.913Z,8.79
2024-02-02T05:18:00.836Z,8.86
2024-02-02T05:20:27.420Z,8.87
2024-02-02T05:22:53.877Z,8.86
2024-02-02T05:25:20.409Z,8.72
2024-02-02T05:27:46.896Z,8.87
2024-02-02T05:30:13.663Z,8.80
2024-02-02T05:32:40.727Z,8.65
2024-02-02T05:35:07.655Z,8.73
2024-02-02T05:37:34.591Z,8.68
2024-02-02T05:40:01.140Z,8.70
2024-02-02T05:42:27.840Z,8.63
2024-02-02T05:44:54.367Z,8.73
2024-02-02T05:47:21.429Z,8.63
2024-02-02T05:49:47.956Z,8.66
2024-02-02T05:52:14.527Z,8.75
2024-02-02T05:54:41.052Z,8.74
2024-02-02T05:57:07.612Z,8.59
2024-02-02T05:59:34.122Z,8.47
2024-02-02T06:02:00.683Z,8.72
2024-02-02T06:04:27.249Z,8.80
2024-02-02T06:06:53.937Z,8.72
2024-02-02T06:09:20.534Z,8.69
2024-02-02T06:11:47.041Z,8.70
2024-02-02T06:14:13.527Z,8.57
2024-02-02T06:16:40.008Z,8.77
2024-02-02T06:19:06.635Z,8.48
2024-02-02T06:21:33.495Z,8.71
2024-02-02T06:24:00.029Z,8.53
2024-02-02T06:26:26.607Z,8.53
2024-02-02T06:28:53.111Z,8.31
2024-02-02T06:31:22.702Z,8.41
2024-02-02T06:33:49.183Z,8.55
2024-02-02T06:36:15.840Z,8.33
2024-02-02T06:38:42.302Z,8.46
2024-02-02T06:41:11.736Z,8.46
2024-02-02T06:43:38.705Z,8.52
2024-02-02T06:46:05.337Z,8.28
2024-02-02T06:48:31.909Z,8.34
2024-02-02T06:50:58.521Z,8.59
2024-02-02T06:53:25.077Z,8.49
2024-02-02T06:55:51.633Z,8.66
2024-02-02T06:58:39.813Z,8.57
2024-02-02T07:01:06.374Z,8.46
2024-02-02T07:03:33.552Z,8.43
2024-02-02T07:06:00.542Z,8.25
2024-02-02T07:08:27.581Z,8.59
2024-02-02T07:11:23.587Z,8.48
2024-02-02T07:13:52.487Z,8.48
2024-02-02T07:16:30.593Z,8.47
2024-02-02T07:18:57.806Z,8.40
2024-02-02T07:21:32.140Z,8.47
2024-02-02T07:23:59.875Z,8.47
2024-02-02T07:26:29.323Z,8.48
2024-02-02T07:28:56.070Z,8.40
2024-02-02T07:31:31.868Z,8.36
2024-02-02T07:34:06.394Z,8.57
2024-02-02T07:36:34.947Z,8.17
2024-02-02T07:39:02.004Z,8.42
2024-02-02T07:41:29.973Z,8.76
2024-02-02T07:44:00.284Z,8.74
2024-02-02T07:46:27.313Z,8.75
2024-02-02T07:48:54.874Z,8.50
2024-02-02T07:51:23.861Z,9.00
2024-02-02T07:53:50.778Z,9.11
2024-02-02T07:56:19.306Z,8.58
2024-02-02T07:58:45.917Z,8.85
2024-02-02T08:01:12.537Z,9.28
2024-02-02T08:03:39.594Z,9.11
2024-02-02T08:06:07.349Z,9.25
2024-02-02T08:08:34.533Z,9.33
2024-02-02T08:11:01.229Z,9.11
2024-02-02T08:13:27.969Z,9.24
2024-02-02T08:15:54.976Z,9.26
2024-02-02T08:18:21.566Z,9.29
2024-02-02T08:20:48.099Z,9.15
2024-02-02T08:23:14.650Z,9.33
2024-02-02T08:25:41.285Z,9.25
2024-02-02T08:28:07.749Z,9.35
2024-02-02T08:30:34.251Z,9.41
2024-02-02T08:33:00.910Z,9.42
2024-02-02T08:35:29.651Z,9.30
2024-02-02T08:38:01.181Z,9.44
2024-02-02T08:40:40.024Z,9.59
2024-02-02T08:43:11.644Z,9.54
2024-02-02T08:45:44.480Z,9.46
2024-02-02T08:48:24.048Z,9.36
2024-02-02T08:50:59.279Z,9.58
2024-02-02T08:53:27.118Z,9.52
2024-02-02T08:56:00.600Z,9.74
2024-02-02T08:58:36.061Z,9.57
2024-02-02T09:01:04.611Z,9.51
2024-02-02T09:03:45.794Z,9.57
2024-02-02T09:06:31.008Z,9.84
2024-02-02T09:08:57.596Z,9.84
2024-02-02T09:11:25.132Z,9.78
2024-02-02T09:14:15.335Z,9.99
2024-02-02T09:16:44.998Z,9.98
2024-02-02T09:19:21.175Z,10.41
2024-02-02T09:21:47.749Z,10.26
2024-02-02T09:24:29.337Z,10.14
2024-02-02T09:26:58.901Z,10.32
2024-02-02T09:29:25.537Z,10.02
2024-02-02T09:31:52.278Z,10.10
2024-02-02T09:34:25.767Z,10.18
2024-02-02T09:36:55.726Z,10.26
2024-02-02T09:39:40.655Z,10.24
2024-02-02T09:42:16.880Z,10.27
2024-02-02T09:45:00.334Z,10.10
2024-02-02T09:47:37.707Z,10.11
2024-02-02T09:50:19.595Z,10.15
2024-02-02T09:52:57.010Z,10.35
2024-02-02T09:55:30.575Z,10.41
2024-02-02T09:58:17.123Z,10.36
2024-02-02T10:00:59.451Z,10.66
2024-02-02T10:03:56.620Z,10.72
2024-02-02T10:06:33.470Z,10.66
2024-02-02T10:09:29.949Z,10.97
2024-02-02T10:12:13.672Z,11.04
2024-02-02T10:14:46.262Z,11.20
2024-02-02T10:17:46.501Z,10.97
2024-02-02T10:20:38.434Z,10.96
2024-02-02T10:23:14.901Z,10.70
2024-02-02T10:26:05.732Z,10.77
2024-02-02T10:28:50.504Z,10.39
2024-02-02T10:31:31.666Z,10.69
2024-02-02T10:34:17.075Z,10.62
2024-02-02T10:37:01.602Z,10.81
2024-02-02T10:39:44.331Z,10.93
2024-02-02T10:42:30.300Z,10.98
2024-02-02T10:45:14.205Z,10.75
2024-02-02T10:48:01.358Z,10.97
2024-02-02T10:50:38.358Z,11.09
2024-02-02T10:53:30.856Z,11.23
2024-02-02T10:56:03.628Z,11.53
2024-02-02T10:58:32.884Z,11.19
2024-02-02T11:01:18.151Z,11.49
2024-02-02T11:03:53.261Z,11.43
2024-02-02T11:06:34.910Z,11.35
2024-02-02T11:09:34.781Z,11.39
2024-02-02T11:12:12.082Z,11.56
2024-02-02T11:14:51.072Z,11.51
2024-02-02T11:17:34.905Z,11.28
2024-02-02T11:20:23.285Z,11.66
2024-02-02T11:23:29.969Z,11.40
2024-02-02T11:26:31.892Z,11.30
2024-02-02T11:29:01.278Z,11.52
2024-02-02T11:31:38.731Z,11.63
2024-02-02T11:34:19.867Z,11.57
2024-02-02T11:37:12.839Z,11.62
2024-02-02T11:40:00.651Z,11.70
2024-02-02T11:42:29.609Z,11.51
2024-02-02T11:44:58.198Z,11.86
2024-02-02T11:47:26.026Z,11.73
2024-02-02T11:50:08.010Z,11.49
2024-02-02T11:52:48.512Z,11.58
2024-02-02T11:55:33.946Z,11.66
2024-02-02T11:58:08.242Z,11.66
2024-02-02T12:01:07.264Z,11.78
2024-02-02T12:03:50.318Z,11.73
2024-02-02T12:06:18.511Z,11.56
2024-02-02T12:08:55.505Z,11.68
2024-02-02T12:11:29.635Z,11.81
2024-02-02T12:14:08.180Z,11.76
2024-02-02T12:16:34.683Z,11.83
2024-02-02T12:19:01.362Z,11.85
2024-02-02T12:21:28.025Z,11.67
2024-02-02T12:23:54.583Z,11.70
2024-02-02T12:26:22.183Z,11.63
2024-02-02T12:28:48.666Z,11.56
2024-02-02T12:31:15.237Z,11.77
2024-02-02T12:33:41.857Z,11.77
2024-02-02T12:36:12.497Z,11.63
2024-02-02T12:38:39.572Z,11.61
2024-02-02T12:41:09.952Z,11.86
2024-02-02T12:43:36.486Z,11.83
2024-02-02T12:46:04.032Z,11.92
2024-02-02T12:48:30.642Z,11.74
2024-02-02T12:50:57.212Z,11.71
2024-02-02T12:53:23.766Z,11.81
2024-02-02T12:55:50.433Z,11.66
2024-02-02T12:58:17.119Z,11.69
2024-02-02T13:00:43.777Z,11.66
2024-02-02T13:03:13.662Z,11.51
2024-02-02T13:05:40.482Z,11.69
2024-02-02T13:08:09.198Z,11.66
2024-02-02T13:10:36.452Z,11.43
2024-02-02T13:13:18.387Z,11.32
2024-02-02T13:15:44.957Z,11.30
2024-02-02T13:18:14.054Z,11.53
2024-02-02T13:20:45.881Z,11.55
2024-02-02T13:23:26.066Z,11.28
2024-02-02T13:25:54.294Z,11.47
2024-02-02T13:28:21.082Z,11.39
2024-02-02T13:30:59.276Z,11.27
2024-02-02T13:33:33.840Z,11.43
2024-02-02T13:36:02.841Z,11.33
2024-02-02T13:38:32.420Z,11.27
2024-02-02T13:41:00.542Z,11.21
2024-02-02T13:43:28.845Z,11.33
2024-02-02T13:46:06.500Z,11.43
2024-02-02T13:48:37.701Z,11.24
2024-02-02T13:51:06.003Z,11.15
2024-02-02T13:53:32.712Z,11.09
2024-02-02T13:56:04.634Z,10.96
2024-02-02T13:58:38.271Z,11.00
2024-02-02T14:01:16.022Z,11.18
2024-02-02T14:03:42.557Z,11.20
2024-02-02T14:06:09.716Z,11.13
2024-02-02T14:08:43.471Z,11.32
2024-02-02T14:11:10.100Z,11.13
2024-02-02T14:13:36.802Z,11.12
2024-02-02T14:16:03.524Z,10.95
2024-02-02T14:18:30.781Z,11.08
2024-02-02T14:20:57.380Z,11.10
2024-02-02T14:23:24.164Z,11.05
2024-02-02T14:25:51.118Z,10.97
2024-02-02T14:28:19.129Z,11.05
2024-02-02T14:30:48.927Z,10.90
2024-02-02T14:33:25.063Z,10.86
2024-02-02T14:35:53.082Z,11.03
2024-02-02T14:38:19.652Z,10.90
2024-02-02T14:40:46.114Z,10.71
2024-02-02T14:43:12.633Z,10.97
2024-02-02T14:45:39.236Z,10.90
2024-02-02T14:48:06.185Z,10.94
2024-02-02T14:50:34.719Z,11.02
2024-02-02T14:53:01.206Z,10.73
2024-02-02T14:55:28.594Z,10.94
2024-02-02T14:57:58.232Z,10.80
2024-02-02T15:00:34.522Z,10.92
2024-02-02T15:03:05.041Z,10.95
2024-02-02T15:05:31.614Z,10.94
2024-02-02T15:07:58.232Z,10.87
2024-02-02T15:10:24.934Z,10.92
2024-02-02T15:12:51.554Z,10.76
2024-02-02T15:15:18.146Z,10.89
2024-02-02T15:17:44.674Z,10.90
2024-02-02T15:20:11.894Z,11.13
2024-02-02T15:22:38.759Z,10.90
2024-02-02T15:25:05.938Z,10.60
2024-02-02T15:27:35.566Z,10.99
2024-02-02T15:30:04.472Z,10.86
2024-02-02T15:32:31.399Z,10.95
2024-02-02T15:34:58.505Z,10.93
2024-02-02T15:37:27.009Z,10.85
2024-02-02T15:39:58.299Z,10.76
2024-02-02T15:42:26.415Z,10.95
2024-02-02T15:44:54.484Z,11.00
2024-02-02T15:47:21.414Z,10.90
2024-02-02T15:49:49.607Z,10.93
2024-02-02T15:52:16.391Z,11.07
2024-02-02T15:54:43.723Z,10.91
2024-02-02T15:57:11.260Z,11.05
2024-02-02T15:59:38.642Z,11.09
2024-02-02T16:02:05.626Z,11.03
2024-02-02T16:04:32.958Z,10.93
2024-02-02T16:07:05.401Z,11.17
2024-02-02T16:09:40.276Z,11.23
2024-02-02T16:12:08.748Z,11.09
2024-02-02T16:14:35.509Z,11.09
2024-02-02T16:17:02.695Z,11.07
2024-02-02T16:19:30.121Z,11.17
2024-02-02T16:21:56.990Z,11.18
2024-02-02T16:24:23.457Z,11.25
2024-02-02T16:26:50.029Z,11.28
2024-02-02T16:29:16.799Z,11.30
2024-02-02T16:31:44.992Z,11.09
2024-02-02T16:34:12.127Z,11.27
2024-02-02T16:36:43.569Z,11.33
2024-02-02T16:39:14.753Z,11.26
2024-02-02T16:41:42.507Z,11.38
2024-02-02T16:44:09.059Z,11.40
2024-02-02T16:46:43.762Z,11.36
2024-02-02T16:49:11.427Z,11.50
2024-02-02T16:51:38.246Z,11.42
2024-02-02T16:54:08.597Z,11.36
2024-02-02T16:56:35.611Z,11.39
2024-02-02T16:59:02.550Z,11.42
2024-02-02T17:01:30.126Z,11.48
2024-02-02T17:03:57.350Z,11.40
2024-02-02T17:06:25.145Z,11.44
2024-02-02T17:08:52.627Z,11.57
2024-02-02T17:11:19.259Z,11.54
2024-02-02T17:13:45.732Z,11.47
2024-02-02T17:16:12.231Z,11.44
2024-02-02T17:18:42.236Z,11.56
2024-02-02T17:21:09.429Z,11.51
2024-02-02T17:23:36.624Z,11.56
2024-02-02T17:26:03.657Z,11.46
2024-02-02T17:28:30.194Z,11.36
2024-02-02T17:30:57.363Z,11.49
2024-02-02T17:33:24.263Z,11.53
2024-02-02T17:35:51.095Z,11.60
2024-02-02T17:38:17.862Z,11.44
2024-02-02T17:40:47.070Z,11.63
2024-02-02T17:43:13.968Z,11.61
2024-02-02T17:45:40.595Z,11.57
2024-02-02T17:48:07.500Z,11.55
2024-02-02T17:50:34.211Z,11.79
2024-02-02T17:53:00.808Z,11.59
2024-02-02T17:55:27.342Z,11.77
2024-02-02T17:57:53.898Z,11.72
2024-02-02T18:00:20.925Z,11.86
2024-02-02T18:02:47.959Z,11.74
2024-02-02T18:05:14.487Z,11.76
2024-02-02T18:07:47.515Z,11.87
2024-02-02T18:10:15.197Z,11.77
2024-02-02T18:12:41.905Z,11.72
2024-02-02T18:15:08.995Z,11.82
2024-02-02T18:17:35.852Z,11.73
2024-02-02T18:20:02.561Z,11.74
2024-02-02T18:22:29.286Z,11.78
2024-02-02T18:24:55.745Z,11.79
2024-02-02T18:27:22.250Z,11.96
2024-02-02T18:29:53.002Z,11.91
2024-02-02T18:32:20.848Z,12.00
2024-02-02T18:34:48.634Z,11.89
2024-02-02T18:37:15.401Z,11.95
2024-02-02T18:39:42.543Z,11.92
2024-02-02T18:42:09.421Z,11.88
2024-02-02T18:44:35.921Z,11.81
2024-02-02T18:47:02.643Z,12.04
2024-02-02T18:49:29.278Z,11.87
2024-02-02T18:51:55.819Z,11.78
2024-02-02T18:54:22.912Z,12.12
2024-02-02T18:56:50.042Z,11.91
2024-02-02T18:59:16.863Z,12.01
2024-02-02T19:01:43.398Z,12.01
2024-02-02T19:04:12.179Z,11.99
2024-02-02T19:06:42.366Z,11.87
2024-02-02T19:09:09.815Z,11.83
2024-02-02T19:11:36.792Z,11.75
2024-02-02T19:14:04.149Z,11.91
2024-02-02T19:16:30.706Z,12.06
2024-02-02T19:18:57.368Z,11.92
2024-02-02T19:21:31.627Z,11.96
2024-02-02T19:23:59.948Z,12.13
2024-02-02T19:26:26.430Z,12.03
2024-02-02T19:28:53.167Z,12.23
2024-02-02T19:31:24.944Z,12.14
2024-02-02T19:33:52.343Z,12.01
2024-02-02T19:36:29.458Z,12.18
2024-02-02T19:38:57.887Z,12.12
2024-02-02T19:41:26.216Z,12.16
2024-02-02T19:43:53.628Z,12.27
2024-02-02T19:46:21.199Z,12.19
2024-02-02T19:48:49.157Z,12.11
2024-02-02T19:51:17.027Z,12.18
2024-02-02T19:53:43.607Z,12.28
2024-02-02T19:56:10.892Z,12.27
2024-02-02T19:58:38.740Z,12.17
2024-02-02T20:01:05.635Z,12.08
2024-02-02T20:03:32.774Z,11.90
2024-02-02T20:06:00.967Z,12.19
2024-02-02T20:08:27.464Z,12.11
2024-02-02T20:10:53.914Z,12.11
2024-02-02T20:13:22.400Z,12.20
2024-02-02T20:15:49.115Z,11.97
2024-02-02T20:18:15.907Z,12.34
2024-02-02T20:20:42.484Z,12.23
2024-02-02T20:23:08.986Z,12.11
2024-02-02T20:25:35.456Z,12.36
2024-02-02T20:28:02.546Z,12.20
2024-02-02T20:30:29.879Z,12.37
2024-02-02T20:32:56.420Z,12.40
2024-02-02T20:35:23.025Z,12.35
2024-02-02T20:37:49.600Z,12.38
2024-02-02T20:40:18.430Z,12.33
2024-02-02T20:42:44.984Z,12.12
2024-02-02T20:45:12.064Z,12.19
2024-02-02T20:47:38.655Z,12.10
2024-02-02T20:50:05.527Z,12.06
2024-02-02T20:52:32.020Z,12.17
2024-02-02T20:55:00.208Z,12.12
2024-02-02T20:57:26.767Z,12.04
2024-02-02T20:59:54.222Z,11.94
2024-02-02T21:02:20.880Z,12.03
2024-02-02T21:04:47.588Z,12.09
2024-02-02T21:07:14.259Z,12.00
2024-02-02T21:09:40.973Z,12.04
2024-02-02T21:12:08.300Z,11.96
2024-02-02T21:14:34.919Z,11.89
2024-02-02T21:17:01.542Z,12.08
2024-02-02T21:19:32.101Z,11.90
2024-02-02T21:21:58.764Z,12.04
2024-02-02T21:24:25.292Z,12.12
2024-02-02T21:26:51.774Z,12.06
2024-02-02T21:29:18.229Z,12.11
2024-02-02T21:31:45.107Z,12.07
2024-02-02T21:34:11.736Z,12.13
2024-02-02T21:36:38.383Z,12.19
2024-02-02T21:39:05.030Z,12.13
2024-02-02T21:41:32.892Z,12.05
2024-02-02T21:43:59.346Z,12.11
2024-02-02T21:46:25.801Z,12.09
2024-02-02T21:48:52.408Z,12.16
2024-02-02T21:51:19.033Z,11.83
2024-02-02T21:53:45.531Z,12.02
2024-02-02T21:56:12.120Z,12.10
2024-02-02T21:58:38.580Z,12.12
2024-02-02T22:01:05.237Z,12.29
2024-02-02T22:03:31.976Z,12.35
2024-02-02T22:05:58.653Z,12.16
2024-02-02T22:08:25.110Z,12.14
2024-02-02T22:10:51.565Z,11.91
2024-02-02T22:13:18.159Z,12.24
2024-02-02T22:15:44.939Z,11.87
2024-02-02T22:18:11.926Z,12.10
2024-02-02T22:20:38.545Z,12.08
2024-02-02T22:23:05.768Z,12.19
2024-02-02T22:25:32.863Z,12.27
2024-02-02T22:27:59.963Z,12.08
2024-02-02T22:30:26.639Z,12.17
2024-02-02T22:32:53.188Z,12.22
2024-02-02T22:35:19.964Z,12.22
2024-02-02T22:37:46.559Z,12.14
2024-02-02T22:40:13.283Z,12.27
2024-02-02T22:42:39.855Z,12.02
2024-02-02T22:45:06.764Z,12.30
2024-02-02T22:47:33.408Z,12.13
2024-02-02T22:50:00.019Z,12.14
2024-02-02T22:52:26.509Z,12.34
2024-02-02T22:54:53.166Z,12.23
2024-02-02T22:57:19.667Z,11.93
2024-02-02T22:59:53.198Z,12.16
2024-02-02T23:02:23.707Z,12.29
2024-02-02T23:04:50.242Z,12.30
2024-02-02T23:07:16.857Z,12.05
2024-02-02T23:09:43.498Z,12.31
2024-02-02T23:12:10.739Z,12.23
2024-02-02T23:14:38.453Z,12.28
2024-02-02T23:17:04.936Z,11.97
2024-02-02T23:19:31.535Z,12.11
2024-02-02T23:21:58.265Z,12.16
2024-02-02T23:24:25.317Z,12.20
2024-02-02T23:26:52.075Z,12.20
2024-02-02T23:29:18.649Z,12.37
2024-02-02T23:31:45.120Z,12.13
2024-02-02T23:34:11.655Z,12.39
2024-02-02T23:36:38.256Z,12.19
2024-02-02T23:39:07.986Z,12.06
2024-02-02T23:41:34.480Z,12.23
2024-02-02T23:44:00.932Z,12.34
2024-02-02T23:46:27.410Z,12.30
2024-02-02T23:48:54.012Z,12.27
2024-02-02T23:51:20.545Z,12.35
2024-02-02T23:53:47.055Z,12.31
2024-02-02T23:56:13.546Z,12.42
2024-02-02T23:58:40.048Z,12.36
